sensor_id;sensor_type;location;lat;lon;timestamp;pressure;altitude;pressure_sealevel;temperature;humidity
48968;BME280;46511;53.148;8.204;2023-03-05T00:02:10;101951.88;;;4.90;100.00
48968;BME280;46511;53.148;8.204;2023-03-05T00:04:43;101948.06;;;4.49;100.00
48968;BME280;46511;53.148;8.204;2023-03-05T00:07:14;101948.06;;;4.49;100.00
48968;BME280;46511;53.148;8.204;2023-03-05T00:09:45;101941.22;;;4.36;100.00
48968;BME280;46511;53.148;8.204;2023-03-05T00:12:16;101938.72;;;4.26;100.00
48968;BME280;46511;53.148;8.204;2023-03-05T00:14:48;101933.72;;;4.04;100.00
48968;BME280;46511;53.148;8.204;2023-03-05T00:17:19;101941.56;;;4.07;100.00
48968;BME280;46511;53.148;8.204;2023-03-05T00:19:51;101934.53;;;4.07;100.00
48968;BME280;46511;53.148;8.204;2023-03-05T00:22:22;101938.16;;;4.00;100.00
48968;BME280;46511;53.148;8.204;2023-03-05T00:24:53;101930.91;;;4.20;100.00
48968;BME280;46511;53.148;8.204;2023-03-05T00:27:24;101930.03;;;4.17;100.00
48968;BME280;46511;53.148;8.204;2023-03-05T00:29:56;101922.25;;;4.11;100.00
48968;BME280;46511;53.148;8.204;2023-03-05T00:32:27;101918.66;;;4.16;100.00
48968;BME280;46511;53.148;8.204;2023-03-05T00:34:58;101927.47;;;4.12;100.00
48968;BME280;46511;53.148;8.204;2023-03-05T00:37:29;101917.19;;;3.92;100.00
48968;BME280;46511;53.148;8.204;2023-03-05T00:40:01;101917.13;;;3.97;100.00
48968;BME280;46511;53.148;8.204;2023-03-05T00:42:33;101911.81;;;4.03;100.00
48968;BME280;46511;53.148;8.204;2023-03-05T00:45:08;101915.22;;;4.11;100.00
48968;BME280;46511;53.148;8.204;2023-03-05T00:47:40;101908.13;;;4.16;100.00
48968;BME280;46511;53.148;8.204;2023-03-05T00:50:11;101905.31;;;4.32;100.00
48968;BME280;46511;53.148;8.204;2023-03-05T00:52:43;101910.53;;;4.36;100.00
48968;BME280;46511;53.148;8.204;2023-03-05T00:55:14;101903.13;;;4.66;100.00
48968;BME280;46511;53.148;8.204;2023-03-05T00:57:45;101893.59;;;4.57;100.00
48968;BME280;46511;53.148;8.204;2023-03-05T01:00:17;101895.59;;;4.38;100.00
48968;BME280;46511;53.148;8.204;2023-03-05T01:02:48;101897.75;;;4.72;100.00
48968;BME280;46511;53.148;8.204;2023-03-05T01:05:19;101895.50;;;4.46;100.00
48968;BME280;46511;53.148;8.204;2023-03-05T01:07:52;101891.97;;;4.45;100.00
48968;BME280;46511;53.148;8.204;2023-03-05T01:10:24;101886.84;;;4.35;100.00
48968;BME280;46511;53.148;8.204;2023-03-05T01:12:59;101886.53;;;4.59;100.00
48968;BME280;46511;53.148;8.204;2023-03-05T01:15:30;101882.16;;;4.58;100.00
48968;BME280;46511;53.148;8.204;2023-03-05T01:18:01;101878.69;;;4.54;100.00
48968;BME280;46511;53.148;8.204;2023-03-05T01:20:33;101873.78;;;4.30;100.00
48968;BME280;46511;53.148;8.204;2023-03-05T01:23:04;101872.66;;;4.48;100.00
48968;BME280;46511;53.148;8.204;2023-03-05T01:25:36;101866.63;;;4.40;100.00
48968;BME280;46511;53.148;8.204;2023-03-05T01:28:07;101860.28;;;4.53;100.00
48968;BME280;46511;53.148;8.204;2023-03-05T01:30:39;101862.28;;;4.39;100.00
48968;BME280;46511;53.148;8.204;2023-03-05T01:33:10;101859.84;;;4.22;100.00
48968;BME280;46511;53.148;8.204;2023-03-05T01:35:41;101866.19;;;4.09;100.00
48968;BME280;46511;53.148;8.204;2023-03-05T01:38:15;101863.72;;;3.93;100.00
48968;BME280;46511;53.148;8.204;2023-03-05T01:40:47;101853.56;;;3.63;100.00
48968;BME280;46511;53.148;8.204;2023-03-05T01:43:21;101858.72;;;3.72;100.00
48968;BME280;46511;53.148;8.204;2023-03-05T01:51:31;101846.03;;;4.08;100.00
48968;BME280;46511;53.148;8.204;2023-03-05T01:54:08;101834.78;;;3.98;100.00
48968;BME280;46511;53.148;8.204;2023-03-05T01:56:44;101839.03;;;4.05;100.00
48968;BME280;46511;53.148;8.204;2023-03-05T01:59:16;101826.63;;;4.15;100.00
48968;BME280;46511;53.148;8.204;2023-03-05T02:01:49;101831.31;;;3.93;100.00
48968;BME280;46511;53.148;8.204;2023-03-05T02:04:26;101833.72;;;4.10;100.00
48968;BME280;46511;53.148;8.204;2023-03-05T02:07:02;101826.69;;;4.12;100.00
48968;BME280;46511;53.148;8.204;2023-03-05T02:09:36;101825.88;;;4.05;100.00
48968;BME280;46511;53.148;8.204;2023-03-05T02:12:09;101821.63;;;3.96;100.00
48968;BME280;46511;53.148;8.204;2023-03-05T02:14:43;101819.88;;;3.98;100.00
48968;BME280;46511;53.148;8.204;2023-03-05T02:17:16;101816.25;;;4.04;100.00
48968;BME280;46511;53.148;8.204;2023-03-05T02:19:49;101815.34;;;4.07;100.00
48968;BME280;46511;53.148;8.204;2023-03-05T02:22:24;101808.88;;;3.64;100.00
48968;BME280;46511;53.148;8.204;2023-03-05T02:24:55;101803.47;;;3.77;100.00
48968;BME280;46511;53.148;8.204;2023-03-05T02:27:30;101798.22;;;3.77;100.00
48968;BME280;46511;53.148;8.204;2023-03-05T02:30:05;101798.25;;;3.75;100.00
48968;BME280;46511;53.148;8.204;2023-03-05T02:32:37;101792.03;;;3.81;100.00
48968;BME280;46511;53.148;8.204;2023-03-05T02:35:08;101791.84;;;3.96;100.00
48968;BME280;46511;53.148;8.204;2023-03-05T02:37:40;101779.66;;;3.90;100.00
48968;BME280;46511;53.148;8.204;2023-03-05T02:40:11;101783.06;;;3.97;100.00
48968;BME280;46511;53.148;8.204;2023-03-05T02:42:43;101788.28;;;4.00;100.00
48968;BME280;46511;53.148;8.204;2023-03-05T02:45:15;101782.94;;;4.08;100.00
48968;BME280;46511;53.148;8.204;2023-03-05T02:47:46;101784.88;;;3.93;100.00
48968;BME280;46511;53.148;8.204;2023-03-05T02:50:18;101785.91;;;3.82;100.00
48968;BME280;46511;53.148;8.204;2023-03-05T02:52:49;101778.56;;;4.05;100.00
48968;BME280;46511;53.148;8.204;2023-03-05T02:55:21;101772.41;;;4.06;100.00
48968;BME280;46511;53.148;8.204;2023-03-05T02:57:52;101769.69;;;4.12;100.00
48968;BME280;46511;53.148;8.204;2023-03-05T03:00:23;101766.44;;;3.95;100.00
48968;BME280;46511;53.148;8.204;2023-03-05T03:02:55;101755.38;;;4.32;100.00
48968;BME280;46511;53.148;8.204;2023-03-05T03:05:26;101750.44;;;4.12;100.00
48968;BME280;46511;53.148;8.204;2023-03-05T03:07:57;101755.06;;;3.94;100.00
48968;BME280;46511;53.148;8.204;2023-03-05T03:10:28;101746.81;;;4.20;100.00
48968;BME280;46511;53.148;8.204;2023-03-05T03:13:00;101754.56;;;4.29;100.00
48968;BME280;46511;53.148;8.204;2023-03-05T03:15:31;101750.94;;;4.35;100.00
48968;BME280;46511;53.148;8.204;2023-03-05T03:18:02;101754.50;;;4.33;100.00
48968;BME280;46511;53.148;8.204;2023-03-05T03:20:35;101743.81;;;4.42;100.00
48968;BME280;46511;53.148;8.204;2023-03-05T03:23:08;101741.25;;;4.39;100.00
48968;BME280;46511;53.148;8.204;2023-03-05T03:25:40;101740.28;;;4.44;100.00
48968;BME280;46511;53.148;8.204;2023-03-05T03:28:11;101736.28;;;4.20;100.00
48968;BME280;46511;53.148;8.204;2023-03-05T03:30:42;101727.13;;;4.46;100.00
48968;BME280;46511;53.148;8.204;2023-03-05T03:33:14;101723.31;;;4.62;100.00
48968;BME280;46511;53.148;8.204;2023-03-05T03:35:45;101721.56;;;4.63;100.00
48968;BME280;46511;53.148;8.204;2023-03-05T03:38:16;101713.94;;;4.47;100.00
48968;BME280;46511;53.148;8.204;2023-03-05T03:40:48;101710.03;;;4.17;100.00
48968;BME280;46511;53.148;8.204;2023-03-05T03:43:19;101709.91;;;4.23;100.00
48968;BME280;46511;53.148;8.204;2023-03-05T03:45:50;101710.06;;;4.14;100.00
48968;BME280;46511;53.148;8.204;2023-03-05T03:48:21;101699.59;;;4.11;100.00
48968;BME280;46511;53.148;8.204;2023-03-05T03:50:53;101705.06;;;3.99;100.00
48968;BME280;46511;53.148;8.204;2023-03-05T03:53:24;101701.56;;;3.97;100.00
48968;BME280;46511;53.148;8.204;2023-03-05T03:55:58;101705.28;;;3.82;100.00
48968;BME280;46511;53.148;8.204;2023-03-05T03:58:30;101690.38;;;3.84;100.00
48968;BME280;46511;53.148;8.204;2023-03-05T04:01:01;101697.44;;;3.81;100.00
48968;BME280;46511;53.148;8.204;2023-03-05T04:03:32;101694.63;;;3.93;100.00
48968;BME280;46511;53.148;8.204;2023-03-05T04:06:04;101688.81;;;3.71;100.00
48968;BME280;46511;53.148;8.204;2023-03-05T04:08:35;101685.84;;;3.94;100.00
48968;BME280;46511;53.148;8.204;2023-03-05T04:11:07;101683.91;;;4.05;100.00
48968;BME280;46511;53.148;8.204;2023-03-05T04:13:38;101682.38;;;3.92;100.00
48968;BME280;46511;53.148;8.204;2023-03-05T04:16:09;101676.25;;;3.91;100.00
48968;BME280;46511;53.148;8.204;2023-03-05T04:18:40;101659.03;;;3.69;100.00
48968;BME280;46511;53.148;8.204;2023-03-05T04:21:12;101674.94;;;3.58;100.00
48968;BME280;46511;53.148;8.204;2023-03-05T04:23:44;101669.78;;;3.54;100.00
48968;BME280;46511;53.148;8.204;2023-03-05T04:26:15;101674.97;;;3.57;100.00
48968;BME280;46511;53.148;8.204;2023-03-05T04:28:46;101670.72;;;3.48;100.00
48968;BME280;46511;53.148;8.204;2023-03-05T04:31:18;101672.44;;;3.52;100.00
48968;BME280;46511;53.148;8.204;2023-03-05T04:33:50;101665.47;;;3.48;100.00
48968;BME280;46511;53.148;8.204;2023-03-05T04:36:21;101670.94;;;3.33;100.00
48968;BME280;46511;53.148;8.204;2023-03-05T04:38:53;101668.22;;;3.37;100.00
48968;BME280;46511;53.148;8.204;2023-03-05T04:41:24;101656.34;;;3.73;100.00
48968;BME280;46511;53.148;8.204;2023-03-05T04:43:55;101652.97;;;3.65;100.00
48968;BME280;46511;53.148;8.204;2023-03-05T04:46:27;101646.78;;;3.68;100.00
48968;BME280;46511;53.148;8.204;2023-03-05T04:48:58;101644.19;;;3.66;100.00
48968;BME280;46511;53.148;8.204;2023-03-05T04:51:30;101651.09;;;3.73;100.00
48968;BME280;46511;53.148;8.204;2023-03-05T04:54:01;101647.22;;;3.99;100.00
48968;BME280;46511;53.148;8.204;2023-03-05T04:56:32;101641.81;;;4.08;100.00
48968;BME280;46511;53.148;8.204;2023-03-05T04:59:04;101649.78;;;4.02;100.00
48968;BME280;46511;53.148;8.204;2023-03-05T05:01:35;101646.72;;;4.29;100.00
48968;BME280;46511;53.148;8.204;2023-03-05T05:04:07;101636.50;;;4.11;100.00
48968;BME280;46511;53.148;8.204;2023-03-05T05:06:38;101640.94;;;4.06;100.00
48968;BME280;46511;53.148;8.204;2023-03-05T05:09:10;101644.84;;;4.35;100.00
48968;BME280;46511;53.148;8.204;2023-03-05T05:11:41;101645.59;;;4.43;100.00
48968;BME280;46511;53.148;8.204;2023-03-05T05:14:12;101640.03;;;4.10;100.00
48968;BME280;46511;53.148;8.204;2023-03-05T05:16:44;101643.56;;;4.08;100.00
48968;BME280;46511;53.148;8.204;2023-03-05T05:19:15;101645.75;;;3.81;100.00
48968;BME280;46511;53.148;8.204;2023-03-05T05:21:42;101645.56;;;3.92;100.00
48968;BME280;46511;53.148;8.204;2023-03-05T05:24:08;101645.13;;;4.19;100.00
48968;BME280;46511;53.148;8.204;2023-03-05T05:26:39;101640.75;;;4.20;100.00
48968;BME280;46511;53.148;8.204;2023-03-05T05:29:11;101639.81;;;4.22;100.00
48968;BME280;46511;53.148;8.204;2023-03-05T05:31:42;101636.56;;;4.08;100.00
48968;BME280;46511;53.148;8.204;2023-03-05T05:34:14;101632.06;;;4.13;100.00
48968;BME280;46511;53.148;8.204;2023-03-05T05:36:45;101633.22;;;3.95;100.00
48968;BME280;46511;53.148;8.204;2023-03-05T05:39:17;101633.72;;;3.65;100.00
48968;BME280;46511;53.148;8.204;2023-03-05T05:41:50;101632.06;;;3.56;100.00
48968;BME280;46511;53.148;8.204;2023-03-05T05:44:22;101629.53;;;3.52;100.00
48968;BME280;46511;53.148;8.204;2023-03-05T05:46:54;101622.56;;;3.48;100.00
48968;BME280;46511;53.148;8.204;2023-03-05T05:49:25;101616.56;;;3.38;100.00
48968;BME280;46511;53.148;8.204;2023-03-05T05:51:56;101623.56;;;3.39;100.00
48968;BME280;46511;53.148;8.204;2023-03-05T05:54:29;101622.50;;;3.54;100.00
48968;BME280;46511;53.148;8.204;2023-03-05T05:57:00;101615.56;;;3.48;100.00
48968;BME280;46511;53.148;8.204;2023-03-05T05:59:31;101618.53;;;3.24;100.00
48968;BME280;46511;53.148;8.204;2023-03-05T06:02:03;101616.03;;;3.14;100.00
48968;BME280;46511;53.148;8.204;2023-03-05T06:04:35;101624.56;;;3.29;100.00
48968;BME280;46511;53.148;8.204;2023-03-05T06:07:07;101619.66;;;3.03;100.00
48968;BME280;46511;53.148;8.204;2023-03-05T06:09:38;101628.22;;;3.19;100.00
48968;BME280;46511;53.148;8.204;2023-03-05T06:12:09;101622.00;;;3.26;100.00
48968;BME280;46511;53.148;8.204;2023-03-05T06:14:41;101618.56;;;3.19;100.00
48968;BME280;46511;53.148;8.204;2023-03-05T06:17:12;101618.28;;;3.42;100.00
48968;BME280;46511;53.148;8.204;2023-03-05T06:19:43;101623.03;;;3.14;100.00
48968;BME280;46511;53.148;8.204;2023-03-05T06:22:15;101624.56;;;3.32;100.00
48968;BME280;46511;53.148;8.204;2023-03-05T06:24:46;101620.00;;;3.43;100.00
48968;BME280;46511;53.148;8.204;2023-03-05T06:27:19;101627.81;;;3.48;100.00
48968;BME280;46511;53.148;8.204;2023-03-05T06:29:51;101621.50;;;3.59;100.00
48968;BME280;46511;53.148;8.204;2023-03-05T06:32:23;101625.00;;;3.61;100.00
48968;BME280;46511;53.148;8.204;2023-03-05T06:34:54;101622.25;;;3.70;100.00
48968;BME280;46511;53.148;8.204;2023-03-05T06:37:26;101628.59;;;3.54;100.00
48968;BME280;46511;53.148;8.204;2023-03-05T06:39:57;101624.66;;;3.84;100.00
48968;BME280;46511;53.148;8.204;2023-03-05T06:42:28;101625.03;;;4.15;100.00
48968;BME280;46511;53.148;8.204;2023-03-05T06:44:59;101624.28;;;4.07;100.00
48968;BME280;46511;53.148;8.204;2023-03-05T06:47:31;101621.66;;;4.09;100.00
48968;BME280;46511;53.148;8.204;2023-03-05T06:50:02;101624.19;;;4.13;100.00
48968;BME280;46511;53.148;8.204;2023-03-05T06:52:34;101617.81;;;4.28;100.00
48968;BME280;46511;53.148;8.204;2023-03-05T06:55:05;101619.69;;;4.69;100.00
48968;BME280;46511;53.148;8.204;2023-03-05T06:57:37;101616.69;;;5.31;100.00
48968;BME280;46511;53.148;8.204;2023-03-05T07:00:09;101614.91;;;5.31;100.00
48968;BME280;46511;53.148;8.204;2023-03-05T07:02:41;101616.00;;;5.21;100.00
48968;BME280;46511;53.148;8.204;2023-03-05T07:05:13;101604.25;;;6.12;100.00
48968;BME280;46511;53.148;8.204;2023-03-05T07:07:44;101602.78;;;7.57;100.00
48968;BME280;46511;53.148;8.204;2023-03-05T07:10:15;101592.84;;;8.46;100.00
48968;BME280;46511;53.148;8.204;2023-03-05T07:12:46;101594.84;;;8.64;100.00
48968;BME280;46511;53.148;8.204;2023-03-05T07:15:18;101590.13;;;9.42;100.00
48968;BME280;46511;53.148;8.204;2023-03-05T07:17:49;101592.06;;;9.61;100.00
48968;BME280;46511;53.148;8.204;2023-03-05T07:20:20;101589.88;;;8.55;100.00
48968;BME280;46511;53.148;8.204;2023-03-05T07:22:52;101586.13;;;8.09;100.00
48968;BME280;46511;53.148;8.204;2023-03-05T07:25:23;101583.63;;;7.78;100.00
48968;BME280;46511;53.148;8.204;2023-03-05T07:27:54;101585.06;;;7.60;100.00
48968;BME280;46511;53.148;8.204;2023-03-05T07:30:26;101581.00;;;7.77;100.00
48968;BME280;46511;53.148;8.204;2023-03-05T07:32:57;101582.75;;;6.91;100.00
48968;BME280;46511;53.148;8.204;2023-03-05T07:35:28;101588.78;;;6.65;100.00
48968;BME280;46511;53.148;8.204;2023-03-05T07:38:00;101582.66;;;7.81;100.00
48968;BME280;46511;53.148;8.204;2023-03-05T07:40:31;101589.50;;;7.86;100.00
48968;BME280;46511;53.148;8.204;2023-03-05T07:43:04;101585.97;;;7.31;100.00
48968;BME280;46511;53.148;8.204;2023-03-05T07:45:39;101593.31;;;6.92;100.00
48968;BME280;46511;53.148;8.204;2023-03-05T07:48:11;101583.06;;;7.11;100.00
48968;BME280;46511;53.148;8.204;2023-03-05T07:50:45;101587.81;;;6.98;100.00
48968;BME280;46511;53.148;8.204;2023-03-05T07:53:17;101581.16;;;7.44;100.00
48968;BME280;46511;53.148;8.204;2023-03-05T07:55:48;101582.22;;;7.66;100.00
48968;BME280;46511;53.148;8.204;2023-03-05T07:58:20;101576.16;;;8.44;100.00
48968;BME280;46511;53.148;8.204;2023-03-05T08:00:51;101575.50;;;8.85;100.00
48968;BME280;46511;53.148;8.204;2023-03-05T08:03:22;101564.72;;;9.59;100.00
48968;BME280;46511;53.148;8.204;2023-03-05T08:05:53;101563.72;;;11.43;100.00
48968;BME280;46511;53.148;8.204;2023-03-05T08:08:25;101568.97;;;10.68;100.00
48968;BME280;46511;53.148;8.204;2023-03-05T08:10:56;101559.19;;;12.17;100.00
48968;BME280;46511;53.148;8.204;2023-03-05T08:13:33;101559.09;;;13.35;91.12
48968;BME280;46511;53.148;8.204;2023-03-05T08:16:05;101562.50;;;11.12;98.46
48968;BME280;46511;53.148;8.204;2023-03-05T08:18:38;101564.19;;;9.93;100.00
48968;BME280;46511;53.148;8.204;2023-03-05T08:21:19;101562.38;;;9.29;100.00
48968;BME280;46511;53.148;8.204;2023-03-05T08:23:59;101565.00;;;8.59;100.00
48968;BME280;46511;53.148;8.204;2023-03-05T08:26:33;101562.72;;;9.20;100.00
48968;BME280;46511;53.148;8.204;2023-03-05T08:29:07;101555.94;;;11.57;100.00
48968;BME280;46511;53.148;8.204;2023-03-05T08:31:40;101544.25;;;12.65;89.70
48968;BME280;46511;53.148;8.204;2023-03-05T08:34:15;101547.22;;;15.32;81.49
48968;BME280;46511;53.148;8.204;2023-03-05T08:36:47;101535.97;;;17.23;59.04
48968;BME280;46511;53.148;8.204;2023-03-05T08:39:19;101534.91;;;15.30;64.45
48968;BME280;46511;53.148;8.204;2023-03-05T08:41:50;101534.63;;;15.76;64.24
48968;BME280;46511;53.148;8.204;2023-03-05T08:44:21;101539.28;;;14.31;74.65
48968;BME280;46511;53.148;8.204;2023-03-05T08:46:52;101532.34;;;12.55;80.39
48968;BME280;46511;53.148;8.204;2023-03-05T08:49:24;101530.56;;;12.21;89.75
48968;BME280;46511;53.148;8.204;2023-03-05T08:51:55;101533.06;;;10.39;100.00
48968;BME280;46511;53.148;8.204;2023-03-05T08:54:26;101533.91;;;10.19;100.00
48968;BME280;46511;53.148;8.204;2023-03-05T08:56:57;101529.59;;;9.74;100.00
48968;BME280;46511;53.148;8.204;2023-03-05T08:59:29;101528.44;;;9.81;100.00
48968;BME280;46511;53.148;8.204;2023-03-05T09:02:01;101532.34;;;8.58;100.00
48968;BME280;46511;53.148;8.204;2023-03-05T09:04:32;101527.78;;;8.62;100.00
48968;BME280;46511;53.148;8.204;2023-03-05T09:07:04;101530.59;;;8.32;100.00
48968;BME280;46511;53.148;8.204;2023-03-05T09:09:35;101525.75;;;8.20;100.00
48968;BME280;46511;53.148;8.204;2023-03-05T09:12:07;101528.09;;;7.77;100.00
48968;BME280;46511;53.148;8.204;2023-03-05T09:14:39;101524.03;;;7.66;100.00
48968;BME280;46511;53.148;8.204;2023-03-05T09:17:10;101519.41;;;7.99;100.00
48968;BME280;46511;53.148;8.204;2023-03-05T09:19:41;101523.03;;;7.97;100.00
48968;BME280;46511;53.148;8.204;2023-03-05T09:22:13;101515.09;;;7.70;100.00
48968;BME280;46511;53.148;8.204;2023-03-05T09:24:45;101515.03;;;7.45;100.00
48968;BME280;46511;53.148;8.204;2023-03-05T09:27:16;101517.31;;;8.09;100.00
48968;BME280;46511;53.148;8.204;2023-03-05T09:29:47;101514.25;;;9.16;100.00
48968;BME280;46511;53.148;8.204;2023-03-05T09:32:19;101507.69;;;8.81;100.00
48968;BME280;46511;53.148;8.204;2023-03-05T09:34:50;101498.53;;;10.78;100.00
48968;BME280;46511;53.148;8.204;2023-03-05T09:37:21;101489.16;;;12.81;87.96
48968;BME280;46511;53.148;8.204;2023-03-05T09:39:53;101492.66;;;14.51;74.10
48968;BME280;46511;53.148;8.204;2023-03-05T09:42:28;101482.50;;;15.67;66.49
48968;BME280;46511;53.148;8.204;2023-03-05T09:45:20;101473.34;;;18.29;48.46
48968;BME280;46511;53.148;8.204;2023-03-05T09:51:02;101472.47;;;19.29;43.38
48968;BME280;46511;53.148;8.204;2023-03-05T09:56:18;101462.13;;;18.91;43.84
48968;BME280;46511;53.148;8.204;2023-03-05T09:58:59;101458.53;;;17.77;44.48
48968;BME280;46511;53.148;8.204;2023-03-05T10:01:41;101464.91;;;16.28;50.00
48968;BME280;46511;53.148;8.204;2023-03-05T10:04:18;101448.16;;;16.75;46.91
48968;BME280;46511;53.148;8.204;2023-03-05T10:06:59;101455.66;;;13.55;53.99
48968;BME280;46511;53.148;8.204;2023-03-05T10:09:42;101459.00;;;15.31;53.87
48968;BME280;46511;53.148;8.204;2023-03-05T10:12:21;101453.53;;;14.50;56.20
48968;BME280;46511;53.148;8.204;2023-03-05T10:15:01;101453.97;;;15.93;52.36
48968;BME280;46511;53.148;8.204;2023-03-05T10:23:22;101442.56;;;17.87;42.30
48968;BME280;46511;53.148;8.204;2023-03-05T10:26:01;101443.56;;;16.52;43.96
48968;BME280;46511;53.148;8.204;2023-03-05T10:45:20;101415.72;;;14.97;52.25
48968;BME280;46511;53.148;8.204;2023-03-05T10:50:30;101407.50;;;15.27;46.85
48968;BME280;46511;53.148;8.204;2023-03-05T10:53:11;101402.88;;;15.02;51.96
48968;BME280;46511;53.148;8.204;2023-03-05T10:55:59;101404.00;;;16.17;45.90
48968;BME280;46511;53.148;8.204;2023-03-05T10:58:32;101397.56;;;16.07;45.80
48968;BME280;46511;53.148;8.204;2023-03-05T11:03:50;101397.56;;;15.42;47.28
48968;BME280;46511;53.148;8.204;2023-03-05T11:06:26;101392.63;;;14.82;52.23
48968;BME280;46511;53.148;8.204;2023-03-05T11:09:24;101401.28;;;13.41;57.88
48968;BME280;46511;53.148;8.204;2023-03-05T11:15:04;101391.28;;;12.83;71.54
48968;BME280;46511;53.148;8.204;2023-03-05T11:17:37;101386.34;;;12.60;77.67
48968;BME280;46511;53.148;8.204;2023-03-05T11:20:22;101389.56;;;12.18;75.78
48968;BME280;46511;53.148;8.204;2023-03-05T11:25:33;101394.75;;;9.63;97.38
48968;BME280;46511;53.148;8.204;2023-03-05T11:28:16;101385.94;;;10.98;89.90
48968;BME280;46511;53.148;8.204;2023-03-05T11:31:23;101387.19;;;11.96;81.14
48968;BME280;46511;53.148;8.204;2023-03-05T11:36:35;101371.44;;;18.92;46.17
48968;BME280;46511;53.148;8.204;2023-03-05T11:41:48;101359.28;;;22.00;34.96
48968;BME280;46511;53.148;8.204;2023-03-05T11:44:21;101351.50;;;17.71;38.94
48968;BME280;46511;53.148;8.204;2023-03-05T11:50:20;101334.53;;;19.98;36.87
48968;BME280;46511;53.148;8.204;2023-03-05T11:53:04;101327.91;;;21.02;35.78
48968;BME280;46511;53.148;8.204;2023-03-05T11:55:44;101322.50;;;21.60;33.86
48968;BME280;46511;53.148;8.204;2023-03-05T11:58:33;101321.16;;;19.45;36.47
48968;BME280;46511;53.148;8.204;2023-03-05T12:01:16;101318.31;;;17.94;38.73
48968;BME280;46511;53.148;8.204;2023-03-05T12:03:52;101313.22;;;19.11;37.78
48968;BME280;46511;53.148;8.204;2023-03-05T12:06:31;101303.31;;;17.34;40.94
48968;BME280;46511;53.148;8.204;2023-03-05T12:17:58;101315.97;;;11.66;74.04
48968;BME280;46511;53.148;8.204;2023-03-05T12:20:34;101322.91;;;10.46;95.64
48968;BME280;46511;53.148;8.204;2023-03-05T12:23:26;101334.28;;;9.31;100.00
48968;BME280;46511;53.148;8.204;2023-03-05T12:25:58;101333.41;;;9.10;100.00
48968;BME280;46511;53.148;8.204;2023-03-05T12:31:20;101307.25;;;9.82;100.00
48968;BME280;46511;53.148;8.204;2023-03-05T12:40:02;101275.16;;;20.78;43.11
48968;BME280;46511;53.148;8.204;2023-03-05T12:42:41;101261.22;;;21.31;40.28
48968;BME280;46511;53.148;8.204;2023-03-05T12:45:22;101255.56;;;20.67;38.11
48968;BME280;46511;53.148;8.204;2023-03-05T12:53:09;101236.44;;;17.65;40.21
48968;BME280;46511;53.148;8.204;2023-03-05T12:58:35;101241.22;;;18.61;41.10
48968;BME280;46511;53.148;8.204;2023-03-05T13:04:15;101229.88;;;18.03;42.07
48968;BME280;46511;53.148;8.204;2023-03-05T13:06:58;101236.97;;;16.77;46.71
48968;BME280;46511;53.148;8.204;2023-03-05T13:09:34;101254.78;;;13.07;63.92
48968;BME280;46511;53.148;8.204;2023-03-05T13:12:10;101251.53;;;11.27;92.60
48968;BME280;46511;53.148;8.204;2023-03-05T13:14:44;101254.78;;;10.26;100.00
48968;BME280;46511;53.148;8.204;2023-03-05T13:19:57;101235.13;;;9.35;100.00
48968;BME280;46511;53.148;8.204;2023-03-05T13:22:29;101227.09;;;11.03;100.00
48968;BME280;46511;53.148;8.204;2023-03-05T13:25:14;101218.16;;;14.37;93.19
48968;BME280;46511;53.148;8.204;2023-03-05T13:27:47;101214.78;;;16.63;70.41
48968;BME280;46511;53.148;8.204;2023-03-05T13:30:21;101210.78;;;17.38;62.33
48968;BME280;46511;53.148;8.204;2023-03-05T13:32:56;101212.47;;;14.83;72.87
48968;BME280;46511;53.148;8.204;2023-03-05T13:35:33;101206.59;;;14.91;74.79
48968;BME280;46511;53.148;8.204;2023-03-05T13:38:04;101210.47;;;15.25;68.13
48968;BME280;46511;53.148;8.204;2023-03-05T13:41:51;101204.69;;;13.12;81.36
48968;BME280;46511;53.148;8.204;2023-03-05T13:43:58;101208.38;;;13.68;79.57
48968;BME280;46511;53.148;8.204;2023-03-05T13:46:32;101208.69;;;12.45;91.88
48968;BME280;46511;53.148;8.204;2023-03-05T13:51:52;101199.31;;;14.12;94.32
48968;BME280;46511;53.148;8.204;2023-03-05T13:54:26;101197.63;;;15.30;80.13
48968;BME280;46511;53.148;8.204;2023-03-05T13:57:02;101185.44;;;14.34;81.17
48968;BME280;46511;53.148;8.204;2023-03-05T13:59:35;101186.75;;;12.55;92.41
48968;BME280;46511;53.148;8.204;2023-03-05T14:02:14;101182.72;;;12.78;89.48
48968;BME280;46511;53.148;8.204;2023-03-05T14:04:48;101180.47;;;11.95;100.00
48968;BME280;46511;53.148;8.204;2023-03-05T14:09:50;101174.34;;;12.24;96.59
48968;BME280;46511;53.148;8.204;2023-03-05T14:12:32;101174.63;;;12.50;92.38
48968;BME280;46511;53.148;8.204;2023-03-05T14:20:56;101184.63;;;8.13;100.00
48968;BME280;46511;53.148;8.204;2023-03-05T14:26:34;101164.31;;;11.00;100.00
48968;BME280;46511;53.148;8.204;2023-03-05T14:31:48;101153.72;;;12.12;100.00
48968;BME280;46511;53.148;8.204;2023-03-05T14:37:02;101139.94;;;12.66;97.71
48968;BME280;46511;53.148;8.204;2023-03-05T14:39:42;101142.94;;;11.35;100.00
48968;BME280;46511;53.148;8.204;2023-03-05T14:42:29;101138.66;;;10.30;100.00
48968;BME280;46511;53.148;8.204;2023-03-05T14:45:24;101143.19;;;9.73;100.00
48968;BME280;46511;53.148;8.204;2023-03-05T14:48:02;101138.66;;;9.37;100.00
48968;BME280;46511;53.148;8.204;2023-03-05T14:50:36;101131.56;;;9.57;100.00
48968;BME280;46511;53.148;8.204;2023-03-05T14:53:17;101128.63;;;9.25;100.00
48968;BME280;46511;53.148;8.204;2023-03-05T14:55:52;101113.59;;;8.86;100.00
48968;BME280;46511;53.148;8.204;2023-03-05T14:58:28;101121.38;;;9.10;100.00
48968;BME280;46511;53.148;8.204;2023-03-05T15:01:05;101111.09;;;9.41;100.00
48968;BME280;46511;53.148;8.204;2023-03-05T15:03:37;101096.19;;;9.58;100.00
48968;BME280;46511;53.148;8.204;2023-03-05T15:06:18;101097.53;;;9.29;100.00
48968;BME280;46511;53.148;8.204;2023-03-05T15:08:53;101093.63;;;10.10;100.00